createdAt,value
2022-08-05T00:00:18.782Z,21.98
2022-08-05T00:02:51.070Z,22.02
2022-08-05T00:06:02.663Z,22.01
2022-08-05T00:08:32.694Z,21.93
2022-08-05T00:11:00.919Z,21.79
2022-08-05T00:13:39.354Z,21.81
2022-08-05T00:16:12.574Z,21.75
2022-08-05T00:18:44.374Z,21.73
2022-08-05T00:21:14.233Z,21.64
2022-08-05T00:23:46.328Z,21.67
2022-08-05T00:26:20.883Z,21.64
2022-08-05T00:28:49.474Z,21.59
2022-08-05T00:31:16.654Z,21.43
2022-08-05T00:34:54.359Z,21.40
2022-08-05T00:37:09.721Z,21.35
2022-08-05T00:39:44.431Z,21.36
2022-08-05T00:42:33.479Z,21.29
2022-08-05T00:45:01.414Z,21.25
2022-08-05T00:47:53.403Z,21.24
2022-08-05T00:50:16.063Z,21.21
2022-08-05T00:52:45.528Z,21.22
2022-08-05T00:57:58.656Z,21.09
2022-08-05T01:00:28.016Z,21.01
2022-08-05T01:02:56.611Z,20.94
2022-08-05T01:05:24.011Z,20.92
2022-08-05T01:08:30.647Z,20.78
2022-08-05T01:10:51.688Z,20.82
2022-08-05T01:13:57.896Z,20.74
2022-08-05T01:16:48.689Z,20.72
2022-08-05T01:19:18.395Z,20.65
2022-08-05T01:22:07.108Z,20.62
2022-08-05T01:24:59.498Z,20.57
2022-08-05T01:27:55.895Z,20.65
2022-08-05T01:30:34.477Z,20.60
2022-08-05T01:33:08.027Z,20.50
2022-08-05T01:35:52.125Z,20.53
2022-08-05T01:38:27.190Z,20.50
2022-08-05T01:40:58.815Z,20.47
2022-08-05T01:43:28.115Z,20.35
2022-08-05T01:45:57.009Z,20.27
2022-08-05T01:48:29.846Z,20.27
2022-08-05T01:50:59.957Z,20.24
2022-08-05T01:53:56.974Z,20.21
2022-08-05T01:58:18.883Z,20.21
2022-08-05T01:59:17.987Z,20.19
2022-08-05T02:01:47.734Z,20.15
2022-08-05T02:04:18.378Z,20.10
2022-08-05T02:06:45.398Z,20.03
2022-08-05T02:09:16.510Z,20.08
2022-08-05T02:12:19.703Z,19.99
2022-08-05T02:15:04.577Z,20.01
2022-08-05T02:18:33.084Z,19.98
2022-08-05T02:20:58.705Z,19.92
2022-08-05T02:23:33.696Z,19.86
2022-08-05T02:26:05.113Z,19.83
2022-08-05T02:28:39.942Z,19.76
2022-08-05T02:31:20.958Z,19.76
2022-08-05T02:33:57.289Z,19.68
2022-08-05T02:36:27.273Z,19.68
2022-08-05T02:38:57.570Z,19.66
2022-08-05T02:41:28.772Z,19.59
2022-08-05T02:44:12.012Z,19.54
2022-08-05T02:46:53.323Z,19.53
2022-08-05T02:49:36.658Z,19.51
2022-08-05T02:52:07.569Z,19.45
2022-08-05T02:54:37.371Z,19.45
2022-08-05T02:58:10.175Z,19.44
2022-08-05T02:59:57.910Z,19.42
2022-08-05T03:02:34.315Z,19.34
2022-08-05T03:05:02.079Z,19.33
2022-08-05T03:07:59.147Z,19.33
2022-08-05T03:10:24.343Z,19.35
2022-08-05T03:12:52.475Z,19.28
2022-08-05T03:15:20.575Z,19.27
2022-08-05T03:17:47.464Z,19.19
2022-08-05T03:20:14.521Z,19.20
2022-08-05T03:22:44.249Z,19.16
2022-08-05T03:25:32.933Z,19.14
2022-08-05T03:28:09.089Z,19.06
2022-08-05T03:30:36.836Z,19.08
2022-08-05T03:33:07.534Z,19.07
2022-08-05T03:35:41.618Z,19.04
2022-08-05T03:38:11.403Z,19.09
2022-08-05T03:40:47.225Z,19.06
2022-08-05T03:44:09.571Z,19.02
2022-08-05T03:46:04.866Z,19.03
2022-08-05T03:48:35.693Z,18.96
2022-08-05T03:52:50.418Z,19.07
2022-08-05T03:55:51.363Z,19.01
2022-08-05T03:57:17.938Z,19.06
2022-08-05T03:59:55.615Z,19.08
2022-08-05T04:02:38.577Z,18.99
2022-08-05T04:05:13.166Z,18.96
2022-08-05T04:07:53.097Z,18.91
2022-08-05T04:10:25.248Z,18.93
2022-08-05T04:12:55.527Z,18.95
2022-08-05T04:15:27.821Z,19.02
2022-08-05T04:18:04.051Z,19.05
2022-08-05T04:20:34.579Z,19.09
2022-08-05T04:23:01.819Z,19.16
2022-08-05T04:25:56.856Z,19.14
2022-08-05T04:28:17.282Z,19.22
2022-08-05T04:30:45.127Z,19.26
2022-08-05T04:33:13.039Z,19.29
2022-08-05T04:36:16.517Z,19.37
2022-08-05T04:38:39.440Z,19.34
2022-08-05T04:41:09.535Z,19.47
2022-08-05T04:43:40.600Z,19.53
2022-08-05T04:46:15.128Z,19.58
2022-08-05T04:48:57.971Z,19.70
2022-08-05T04:51:25.790Z,19.64
2022-08-05T04:53:57.777Z,19.78
2022-08-05T04:56:35.117Z,19.87
2022-08-05T04:59:24.054Z,19.86
2022-08-05T05:02:07.117Z,20.02
2022-08-05T05:04:44.165Z,20.03
2022-08-05T05:07:17.150Z,20.16
2022-08-05T05:09:45.533Z,20.21
2022-08-05T05:12:12.380Z,20.25
2022-08-05T05:14:49.542Z,20.26
2022-08-05T05:17:23.268Z,20.37
2022-08-05T05:19:57.678Z,20.47
2022-08-05T05:22:26.053Z,20.61
2022-08-05T05:24:59.961Z,20.67
2022-08-05T05:27:41.439Z,20.77
2022-08-05T05:30:28.866Z,20.89
2022-08-05T05:33:00.423Z,20.98
2022-08-05T05:35:37.582Z,21.14
2022-08-05T05:38:08.935Z,21.26
2022-08-05T05:40:36.735Z,21.36
2022-08-05T05:43:03.690Z,21.46
2022-08-05T05:45:30.505Z,21.58
2022-08-05T05:48:06.210Z,21.70
2022-08-05T05:50:40.984Z,21.72
2022-08-05T05:53:21.600Z,21.89
2022-08-05T05:55:52.237Z,21.98
2022-08-05T05:58:31.514Z,22.12
2022-08-05T06:01:02.412Z,22.24
2022-08-05T06:04:00.323Z,22.37
2022-08-05T06:06:28.051Z,22.52
2022-08-05T06:08:58.647Z,22.66
2022-08-05T06:11:26.014Z,22.78
2022-08-05T06:13:55.425Z,22.90
2022-08-05T06:16:28.978Z,23.04
2022-08-05T06:19:01.869Z,23.15
2022-08-05T06:21:38.675Z,23.23
2022-08-05T06:24:12.036Z,23.36
2022-08-05T06:26:52.238Z,23.49
2022-08-05T06:29:42.911Z,23.61
2022-08-05T06:32:25.412Z,23.70
2022-08-05T06:34:57.858Z,23.90
2022-08-05T06:37:57.915Z,24.09
2022-08-05T06:40:14.023Z,24.22
2022-08-05T06:42:45.746Z,24.38
2022-08-05T06:45:21.046Z,24.45
2022-08-05T06:48:44.293Z,24.65
2022-08-05T06:50:35.603Z,24.75
2022-08-05T06:53:11.499Z,24.85
2022-08-05T06:55:41.963Z,24.95
2022-08-05T06:58:19.908Z,25.03
2022-08-05T07:01:04.600Z,25.18
2022-08-05T07:03:33.197Z,25.28
2022-08-05T07:06:06.126Z,25.46
2022-08-05T07:08:43.175Z,25.50
2022-08-05T07:11:16.285Z,25.62
2022-08-05T07:14:02.551Z,25.75
2022-08-05T07:17:58.597Z,25.80
2022-08-05T07:20:16.782Z,25.97
2022-08-05T07:22:28.730Z,26.08
2022-08-05T07:25:23.720Z,26.29
2022-08-05T07:27:56.529Z,26.33
2022-08-05T07:30:31.706Z,26.39
2022-08-05T07:33:01.460Z,26.53
2022-08-05T07:36:03.088Z,26.57
2022-08-05T07:38:32.896Z,26.64
2022-08-05T07:42:08.921Z,26.83
2022-08-05T07:43:58.121Z,26.94
2022-08-05T07:46:27.388Z,27.01
2022-08-05T07:49:01.877Z,27.13
2022-08-05T07:51:36.663Z,27.27
2022-08-05T07:54:06.165Z,27.36
2022-08-05T07:57:00.690Z,27.53
2022-08-05T07:59:31.037Z,27.62
2022-08-05T08:02:15.315Z,27.86
2022-08-05T08:04:48.966Z,27.98
2022-08-05T08:07:18.409Z,28.19
2022-08-05T08:09:52.454Z,28.45
2022-08-05T08:12:33.541Z,28.54
2022-08-05T08:15:05.546Z,28.57
2022-08-05T08:17:46.116Z,28.77
2022-08-05T08:20:43.729Z,28.86
2022-08-05T08:24:00.285Z,28.92
2022-08-05T08:25:59.356Z,29.10
2022-08-05T08:28:36.275Z,29.22
2022-08-05T08:31:09.760Z,29.45
2022-08-05T08:33:41.873Z,29.69
2022-08-05T08:36:37.557Z,29.91
2022-08-05T08:38:57.665Z,29.76
2022-08-05T08:41:51.066Z,29.96
2022-08-05T08:45:21.242Z,30.15
2022-08-05T08:47:47.285Z,30.56
2022-08-05T08:50:23.111Z,30.83
2022-08-05T08:52:53.016Z,31.16
2022-08-05T08:56:02.018Z,31.89
2022-08-05T08:58:09.908Z,31.89
2022-08-05T09:00:42.552Z,32.67
2022-08-05T09:03:11.378Z,32.95
2022-08-05T09:06:07.728Z,33.36
2022-08-05T09:08:26.575Z,33.54
2022-08-05T09:10:54.804Z,33.77
2022-08-05T09:13:23.619Z,34.02
2022-08-05T09:15:51.608Z,34.24
2022-08-05T09:18:18.819Z,34.44
2022-08-05T09:20:47.157Z,35.05
2022-08-05T09:23:19.541Z,34.42
2022-08-05T09:26:06.413Z,33.91
2022-08-05T09:28:37.451Z,34.86
2022-08-05T09:31:22.732Z,34.76
2022-08-05T09:34:06.581Z,34.88
2022-08-05T09:36:55.615Z,35.20
2022-08-05T09:39:41.167Z,35.52
2022-08-05T09:42:24.237Z,34.66
2022-08-05T09:44:57.204Z,35.15
2022-08-05T09:47:36.354Z,35.94
2022-08-05T09:50:38.173Z,35.46
2022-08-05T09:53:06.739Z,36.04
2022-08-05T09:55:56.421Z,36.51
2022-08-05T09:58:24.278Z,36.91
2022-08-05T10:00:58.955Z,35.98
2022-08-05T10:03:56.609Z,37.41
2022-08-05T10:06:15.785Z,37.24
2022-08-05T10:08:43.005Z,36.81
2022-08-05T10:11:17.628Z,37.90
2022-08-05T10:13:48.423Z,38.35
2022-08-05T10:16:37.871Z,38.86
2022-08-05T10:19:23.852Z,39.16
2022-08-05T10:22:09.087Z,39.12
2022-08-05T10:24:42.891Z,38.84
2022-08-05T10:27:16.613Z,38.63
2022-08-05T10:30:06.315Z,38.85
2022-08-05T10:32:54.146Z,38.68
2022-08-05T10:35:19.548Z,39.51
2022-08-05T10:37:48.740Z,38.47
2022-08-05T10:40:47.146Z,38.12
2022-08-05T10:43:20.724Z,38.72
2022-08-05T10:46:06.742Z,39.21
2022-08-05T10:48:56.851Z,39.33
2022-08-05T10:51:28.926Z,39.22
2022-08-05T10:54:05.929Z,38.90
2022-08-05T10:56:52.711Z,39.55
2022-08-05T11:00:02.512Z,40.12
2022-08-05T11:02:38.088Z,40.40
2022-08-05T11:05:10.206Z,41.28
2022-08-05T11:08:02.926Z,41.59
2022-08-05T11:10:38.375Z,41.76
2022-08-05T11:13:54.739Z,42.25
2022-08-05T11:16:33.825Z,41.45
2022-08-05T11:20:11.016Z,41.57
2022-08-05T11:22:38.651Z,42.29
2022-08-05T11:26:05.242Z,41.78
2022-08-05T11:28:17.180Z,41.74
2022-08-05T11:31:06.117Z,40.52
2022-08-05T11:33:46.485Z,41.05
2022-08-05T11:36:34.568Z,40.53
2022-08-05T11:39:06.823Z,41.08
2022-08-05T11:42:01.264Z,41.49
2022-08-05T11:44:40.873Z,42.31
2022-08-05T11:47:48.828Z,41.53
2022-08-05T11:50:14.348Z,41.05
2022-08-05T11:52:41.821Z,40.86
2022-08-05T11:55:12.587Z,42.26
2022-08-05T11:58:10.386Z,41.99
2022-08-05T12:00:38.562Z,42.16
2022-08-05T12:03:29.436Z,41.85
2022-08-05T12:06:05.930Z,41.73
2022-08-05T12:08:33.973Z,42.01
2022-08-05T12:11:09.062Z,42.51
2022-08-05T12:13:48.753Z,42.58
2022-08-05T12:16:25.525Z,41.96
2022-08-05T12:18:55.252Z,42.93
2022-08-05T12:21:26.819Z,43.27
2022-08-05T12:24:09.365Z,41.88
2022-08-05T12:26:43.878Z,42.05
2022-08-05T12:29:39.079Z,42.38
2022-08-05T12:32:07.635Z,43.78
2022-08-05T12:34:38.625Z,43.94
2022-08-05T12:37:17.403Z,43.24
2022-08-05T12:39:51.696Z,43.61
2022-08-05T12:42:20.574Z,42.96
2022-08-05T12:44:48.154Z,42.70
2022-08-05T12:47:28.743Z,43.62
2022-08-05T12:50:04.560Z,44.66
2022-08-05T12:52:42.428Z,45.30
2022-08-05T12:55:22.661Z,44.91
2022-08-05T12:58:39.102Z,44.62
2022-08-05T13:02:02.135Z,44.54
2022-08-05T13:03:32.212Z,45.46
2022-08-05T13:06:01.329Z,45.25
2022-08-05T13:08:33.035Z,45.39
2022-08-05T13:11:04.395Z,45.95
2022-08-05T13:14:04.539Z,45.99
2022-08-05T13:16:20.335Z,44.83
2022-08-05T13:18:55.301Z,45.41
2022-08-05T13:21:27.855Z,45.01
2022-08-05T13:24:05.198Z,43.86
2022-08-05T13:26:32.253Z,43.06
2022-08-05T13:28:59.493Z,43.98
2022-08-05T13:31:33.870Z,44.31
2022-08-05T13:34:23.867Z,45.06
2022-08-05T13:36:55.570Z,43.48
2022-08-05T13:39:24.630Z,43.34
2022-08-05T13:42:14.224Z,42.94
2022-08-05T13:44:45.346Z,42.42
2022-08-05T13:47:35.809Z,44.11
2022-08-05T13:52:31.510Z,43.63
2022-08-05T13:55:07.799Z,43.63
2022-08-05T13:57:48.686Z,44.88
2022-08-05T14:00:27.663Z,45.10
2022-08-05T14:02:56.985Z,44.50
2022-08-05T14:05:48.287Z,45.51
2022-08-05T14:08:21.048Z,45.47
2022-08-05T14:11:03.323Z,42.34
2022-08-05T14:13:41.775Z,41.79
2022-08-05T14:16:11.580Z,42.91
2022-08-05T14:18:43.562Z,43.70
2022-08-05T14:21:23.908Z,43.35
2022-08-05T14:23:57.256Z,43.58
2022-08-05T14:26:38.625Z,43.46
2022-08-05T14:29:16.126Z,43.97
2022-08-05T14:32:02.410Z,44.71
2022-08-05T14:34:35.008Z,44.13
2022-08-05T14:37:05.616Z,45.19
2022-08-05T14:39:49.637Z,45.17
2022-08-05T14:42:22.326Z,43.96
2022-08-05T14:44:49.786Z,44.71
2022-08-05T14:47:17.036Z,42.68
2022-08-05T14:50:12.798Z,42.71
2022-08-05T14:52:53.149Z,42.52
2022-08-05T14:55:24.499Z,42.75
2022-08-05T14:57:54.431Z,43.20
2022-08-05T15:00:28.026Z,42.69
2022-08-05T15:02:56.650Z,43.84
2022-08-05T15:05:29.755Z,44.63
2022-08-05T15:08:06.200Z,45.15
2022-08-05T15:10:43.457Z,44.56
2022-08-05T15:13:13.225Z,45.34
2022-08-05T15:15:55.283Z,44.72
2022-08-05T15:18:23.464Z,43.96
2022-08-05T15:20:50.928Z,43.64
2022-08-05T15:23:18.207Z,44.05
2022-08-05T15:25:52.603Z,43.93
2022-08-05T15:28:22.216Z,43.60
2022-08-05T15:30:54.663Z,43.59
2022-08-05T15:34:05.886Z,43.53
2022-08-05T15:36:16.875Z,42.66
2022-08-05T15:38:46.285Z,42.02
2022-08-05T15:41:21.926Z,41.68
2022-08-05T15:43:52.415Z,41.23
2022-08-05T15:46:24.097Z,41.14
2022-08-05T15:48:52.546Z,41.25
2022-08-05T15:52:13.518Z,39.91
2022-08-05T15:54:14.983Z,39.99
2022-08-05T15:56:42.517Z,39.02
2022-08-05T15:59:20.046Z,38.47
2022-08-05T16:01:53.279Z,38.46
2022-08-05T16:04:25.335Z,38.17
2022-08-05T16:06:55.913Z,37.56
2022-08-05T16:09:24.456Z,38.07
2022-08-05T16:11:53.197Z,38.20
2022-08-05T16:14:21.010Z,38.18
2022-08-05T16:16:49.788Z,38.32
2022-08-05T16:19:25.618Z,37.89
2022-08-05T16:22:05.608Z,37.72
2022-08-05T16:24:40.018Z,37.62
2022-08-05T16:27:09.222Z,37.76
2022-08-05T16:29:37.525Z,37.82
2022-08-05T16:32:06.626Z,37.69
2022-08-05T16:34:39.344Z,37.54
2022-08-05T16:38:15.338Z,37.51
2022-08-05T16:40:05.100Z,37.31
2022-08-05T16:42:35.773Z,37.34
2022-08-05T16:46:02.921Z,37.35
2022-08-05T16:47:55.622Z,37.66
2022-08-05T16:50:25.645Z,37.59
2022-08-05T16:52:52.762Z,37.34
2022-08-05T16:55:23.266Z,37.34
2022-08-05T16:57:59.871Z,37.49
2022-08-05T17:00:35.094Z,37.05
2022-08-05T17:03:15.263Z,36.71
2022-08-05T17:05:53.367Z,36.37
2022-08-05T17:08:33.606Z,36.08
2022-08-05T17:11:12.670Z,35.97
2022-08-05T17:13:45.295Z,35.72
2022-08-05T17:16:33.592Z,35.58
2022-08-05T17:19:00.686Z,35.51
2022-08-05T17:21:36.350Z,35.39
2022-08-05T17:24:19.865Z,35.31
2022-08-05T17:26:54.190Z,35.12
2022-08-05T17:29:34.022Z,35.03
2022-08-05T17:32:17.756Z,34.90
2022-08-05T17:34:48.101Z,34.74
2022-08-05T17:37:40.616Z,34.43
2022-08-05T17:40:12.161Z,34.22
2022-08-05T17:42:41.776Z,33.97
2022-08-05T17:45:21.205Z,33.79
2022-08-05T17:47:55.789Z,33.63
2022-08-05T17:50:28.090Z,33.47
2022-08-05T17:53:04.653Z,33.35
2022-08-05T17:55:34.517Z,33.22
2022-08-05T17:58:09.811Z,33.03
2022-08-05T18:00:44.628Z,32.86
2022-08-05T18:03:28.147Z,32.70
2022-08-05T18:06:04.618Z,32.46
2022-08-05T18:08:33.733Z,32.24
2022-08-05T18:11:03.195Z,32.14
2022-08-05T18:13:36.925Z,32.09
2022-08-05T18:16:13.591Z,32.01
2022-08-05T18:18:41.581Z,31.88
2022-08-05T18:21:21.451Z,31.74
2022-08-05T18:23:53.686Z,31.58
2022-08-05T18:26:28.965Z,31.37
2022-08-05T18:28:56.971Z,31.20
2022-08-05T18:31:24.351Z,30.82
2022-08-05T18:33:52.142Z,30.83
2022-08-05T18:36:19.417Z,30.74
2022-08-05T18:38:46.923Z,30.69
2022-08-05T18:41:59.217Z,30.61
2022-08-05T18:44:06.320Z,30.52
2022-08-05T18:46:34.895Z,30.40
2022-08-05T18:49:22.978Z,30.33
2022-08-05T18:52:16.148Z,30.14
2022-08-05T18:54:45.787Z,30.09
2022-08-05T18:57:15.216Z,30.03
2022-08-05T19:00:01.735Z,29.85
2022-08-05T19:02:30.695Z,29.70
2022-08-05T19:05:02.210Z,29.57
2022-08-05T19:07:50.199Z,29.29
2022-08-05T19:10:26.646Z,29.15
2022-08-05T19:12:58.979Z,29.07
2022-08-05T19:15:58.699Z,28.96
2022-08-05T19:18:20.739Z,28.91
2022-08-05T19:20:54.217Z,28.77
2022-08-05T19:24:05.216Z,28.59
2022-08-05T19:26:11.384Z,28.56
2022-08-05T19:28:43.580Z,28.40
2022-08-05T19:31:13.157Z,28.32
2022-08-05T19:33:48.159Z,28.41
2022-08-05T19:36:24.135Z,28.39
2022-08-05T19:38:51.697Z,28.38
2022-08-05T19:41:23.540Z,28.35
2022-08-05T19:44:13.518Z,28.10
2022-08-05T19:46:41.357Z,27.94
2022-08-05T19:49:12.566Z,27.94
2022-08-05T19:52:08.924Z,27.99
2022-08-05T19:54:34.351Z,27.80
2022-08-05T19:57:06.540Z,27.68
2022-08-05T20:00:02.098Z,27.72
2022-08-05T20:02:27.005Z,27.52
2022-08-05T20:04:58.370Z,27.43
2022-08-05T20:07:46.538Z,27.33
2022-08-05T20:10:16.485Z,27.43
2022-08-05T20:12:47.676Z,27.27
2022-08-05T20:15:48.177Z,27.01
2022-08-05T20:18:10.652Z,26.96
2022-08-05T20:20:56.576Z,26.96
2022-08-05T20:23:39.929Z,26.88
2022-08-05T20:26:15.167Z,26.77
2022-08-05T20:28:44.441Z,26.74
2022-08-05T20:31:11.731Z,26.64
2022-08-05T20:33:42.366Z,26.61
2022-08-05T20:36:10.055Z,26.43
2022-08-05T20:38:40.802Z,26.53
2022-08-05T20:41:27.059Z,26.52
2022-08-05T20:44:17.564Z,26.50
2022-08-05T20:46:47.771Z,26.56
2022-08-05T20:49:15.350Z,26.52
2022-08-05T20:51:53.820Z,26.53
2022-08-05T20:54:21.653Z,26.54
2022-08-05T20:56:49.047Z,26.46
2022-08-05T20:59:19.084Z,26.45
2022-08-05T21:01:53.794Z,26.32
2022-08-05T21:04:27.065Z,26.36
2022-08-05T21:06:54.866Z,26.21
2022-08-05T21:09:22.872Z,26.11
2022-08-05T21:12:09.147Z,25.98
2022-08-05T21:14:37.908Z,25.96
2022-08-05T21:17:05.458Z,25.89
2022-08-05T21:19:46.978Z,25.87
2022-08-05T21:22:21.980Z,25.93
2022-08-05T21:24:54.926Z,25.81
2022-08-05T21:27:25.122Z,25.79
2022-08-05T21:29:56.138Z,25.77
2022-08-05T21:32:27.933Z,25.71
2022-08-05T21:35:08.662Z,25.55
2022-08-05T21:37:53.162Z,25.52
2022-08-05T21:40:23.285Z,25.47
2022-08-05T21:42:51.615Z,25.33
2022-08-05T21:45:24.952Z,25.28
2022-08-05T21:48:07.977Z,25.40
2022-08-05T21:50:36.708Z,25.31
2022-08-05T21:53:17.610Z,25.32
2022-08-05T21:56:05.707Z,25.11
2022-08-05T21:58:32.382Z,25.04
2022-08-05T22:00:59.623Z,25.06
2022-08-05T22:03:48.984Z,24.98
2022-08-05T22:06:13.347Z,24.92
2022-08-05T22:08:42.519Z,24.91
2022-08-05T22:11:15.760Z,24.83
2022-08-05T22:14:33.978Z,24.85
2022-08-05T22:16:41.770Z,24.82
2022-08-05T22:20:01.193Z,24.81
2022-08-05T22:22:06.982Z,24.68
2022-08-05T22:25:21.358Z,24.54
2022-08-05T22:28:08.676Z,24.37
2022-08-05T22:30:44.057Z,24.42
2022-08-05T22:33:58.072Z,24.36
2022-08-05T22:36:14.542Z,24.36
2022-08-05T22:38:48.063Z,24.30
2022-08-05T22:42:04.200Z,24.31
2022-08-05T22:44:04.581Z,24.26
2022-08-05T22:46:32.115Z,24.22
2022-08-05T22:48:59.443Z,24.15
2022-08-05T22:51:29.985Z,24.07
2022-08-05T22:54:13.399Z,24.07
2022-08-05T22:56:40.928Z,24.03
2022-08-05T22:59:46.294Z,23.99
2022-08-05T23:02:04.369Z,23.95
2022-08-05T23:04:33.161Z,23.85
2022-08-05T23:07:00.051Z,23.65
2022-08-05T23:09:52.551Z,23.67
2022-08-05T23:12:13.809Z,23.61
2022-08-05T23:14:40.656Z,23.63
2022-08-05T23:17:34.329Z,23.66
2022-08-05T23:20:16.703Z,23.53
2022-08-05T23:22:48.590Z,23.59
2022-08-05T23:25:53.364Z,23.52
2022-08-05T23:28:06.870Z,23.34
2022-08-05T23:30:40.249Z,23.32
2022-08-05T23:33:22.581Z,23.33
2022-08-05T23:36:01.144Z,23.27
2022-08-05T23:38:28.116Z,23.23
2022-08-05T23:40:55.000Z,23.15
2022-08-05T23:43:36.975Z,23.03
2022-08-05T23:46:20.566Z,22.95
2022-08-05T23:49:00.512Z,22.93
2022-08-05T23:51:53.636Z,22.99
2022-08-05T23:54:36.471Z,22.88
2022-08-05T23:57:06.066Z,22.85
